Time;durP1;ratioP1;P1;durP2;ratioP2;P2;SDS_P1;SDS_P2;PMS_P1;PMS_P2;Temp;Humidity;BMP_temperature;BMP_pressure;BME280_temperature;BME280_humidity;BME280_pressure;Samples;Min_cycle;Max_cycle;Signal;HPM_P1;HPM_P2
2021/12/04 00:02:25;;;;;;;11.82;6.47;;;;;;;1.12;88.53;100262.69;5003472;28;20026;-53
2021/12/04 00:04:53;;;;;;;15.45;6.57;;;;;;;1.13;88.47;100260.88;5003095;28;20068;-53
2021/12/04 00:07:20;;;;;;;11.32;6.32;;;;;;;1.13;88.39;100260.88;4999551;28;20030;-55
2021/12/04 00:09:46;;;;;;;11.35;6.18;;;;;;;1.15;88.39;100261.47;5001391;28;20575;-53
2021/12/04 00:12:14;;;;;;;14.55;6.57;;;;;;;1.15;88.25;100261.47;5007698;28;20033;-53
2021/12/04 00:14:41;;;;;;;11.50;5.78;;;;;;;1.17;88.32;100259.47;5008233;28;20029;-54
2021/12/04 00:17:07;;;;;;;8.85;6.10;;;;;;;1.15;88.33;100264.94;5007941;28;20448;-56
2021/12/04 00:19:33;;;;;;;9.98;5.68;;;;;;;1.14;88.49;100258.03;5004967;28;20042;-53
2021/12/04 00:21:59;;;;;;;13.13;6.28;;;;;;;1.10;88.83;100251.53;5006032;28;20270;-52
2021/12/04 00:24:26;;;;;;;14.68;5.97;;;;;;;1.13;88.86;100255.59;5004275;28;20460;-54
2021/12/04 00:26:52;;;;;;;14.88;6.28;;;;;;;1.12;88.69;100254.78;5008737;28;20483;-53
2021/12/04 00:29:18;;;;;;;14.30;6.38;;;;;;;1.11;88.77;100252.34;4999371;28;20399;-55
2021/12/04 00:31:49;;;;;;;12.57;6.15;;;;;;;1.11;89.21;100244.44;5006200;28;20357;-52
2021/12/04 00:34:17;;;;;;;13.05;6.35;;;;;;;1.15;88.96;100250.94;5003158;28;20546;-52
2021/12/04 00:50:23;;;;;;;12.45;6.80;;;;;;;1.24;88.63;100233.88;5005406;28;20056;-52
2021/12/04 00:52:48;;;;;;;14.55;7.47;;;;;;;1.20;88.93;100227.38;5006908;28;20476;-53
2021/12/04 00:55:14;;;;;;;12.48;6.35;;;;;;;1.23;89.02;100227.00;5009925;28;20045;-54
2021/12/04 00:57:39;;;;;;;11.55;6.28;;;;;;;1.26;88.82;100225.78;5002236;28;20116;-54
2021/12/04 01:00:06;;;;;;;11.80;7.10;;;;;;;1.23;89.17;100231.44;5005726;28;20037;-55
2021/12/04 01:02:32;;;;;;;11.18;7.13;;;;;;;1.22;89.34;100222.72;5005215;28;20878;-52
2021/12/04 01:04:58;;;;;;;10.98;7.32;;;;;;;1.24;89.30;100230.44;5009033;28;20119;-54
2021/12/04 01:07:25;;;;;;;12.07;7.28;;;;;;;1.22;89.01;100233.28;5005278;28;20492;-55
2021/12/04 01:09:51;;;;;;;15.15;7.15;;;;;;;1.24;89.55;100228.63;5004157;28;20029;-53
2021/12/04 01:12:17;;;;;;;15.98;6.82;;;;;;;1.32;89.11;100233.72;5001034;28;20029;-54
2021/12/04 01:14:43;;;;;;;12.40;6.72;;;;;;;1.33;88.96;100232.69;5006600;28;20048;-56
2021/12/04 01:17:09;;;;;;;14.75;7.32;;;;;;;1.29;89.31;100233.31;5007175;28;20026;-52
2021/12/04 01:19:36;;;;;;;14.00;7.32;;;;;;;1.33;89.26;100231.91;5004979;28;20933;-53
2021/12/04 01:22:03;;;;;;;17.30;7.88;;;;;;;1.37;88.95;100226.00;5005014;28;20565;-55
2021/12/04 01:24:28;;;;;;;10.75;6.82;;;;;;;1.39;88.76;100221.34;5007120;28;20411;-53
2021/12/04 01:26:54;;;;;;;14.93;7.30;;;;;;;1.40;88.84;100216.88;5007345;28;20026;-54
2021/12/04 01:29:20;;;;;;;12.75;7.10;;;;;;;1.40;88.86;100211.59;5005346;28;20701;-54
2021/12/04 01:31:46;;;;;;;12.73;7.35;;;;;;;1.42;88.91;100214.84;5007383;28;20084;-55
2021/12/04 01:34:12;;;;;;;13.30;7.18;;;;;;;1.39;88.81;100216.06;5006654;28;20025;-55
2021/12/04 01:36:38;;;;;;;15.63;7.15;;;;;;;1.43;89.23;100214.63;5005356;28;20057;-53
2021/12/04 01:39:05;;;;;;;11.77;6.82;;;;;;;1.40;89.23;100224.78;5008185;28;20331;-53
2021/12/04 01:41:33;;;;;;;15.63;7.20;;;;;;;1.40;89.09;100227.44;5004930;28;20612;-54
2021/12/04 01:44:00;;;;;;;14.50;7.82;;;;;;;1.41;88.87;100219.31;5019371;28;20362;-53
2021/12/04 01:46:27;;;;;;;14.02;8.45;;;;;;;1.46;88.91;100216.91;5006518;28;20137;-54
2021/12/04 01:48:53;;;;;;;14.05;7.85;;;;;;;1.45;88.70;100225.03;5003838;28;20038;-55
2021/12/04 01:51:18;;;;;;;13.68;7.03;;;;;;;1.42;88.91;100215.66;5006238;28;20132;-55
2021/12/04 01:53:44;;;;;;;14.18;7.53;;;;;;;1.44;88.84;100218.94;5004292;28;20032;-53
2021/12/04 01:56:09;;;;;;;13.52;7.72;;;;;;;1.49;88.64;100215.69;5008004;28;20506;-55
2021/12/04 01:58:35;;;;;;;13.95;7.97;;;;;;;1.46;88.66;100214.25;5003436;28;20045;-54
2021/12/04 02:01:01;;;;;;;13.55;6.85;;;;;;;1.46;88.64;100211.63;5001584;28;20048;-54
2021/12/04 02:03:26;;;;;;;18.48;7.78;;;;;;;1.44;88.76;100213.66;5005199;28;20101;-56
2021/12/04 02:05:52;;;;;;;15.10;7.55;;;;;;;1.46;88.61;100211.63;5005744;28;20026;-54
2021/12/04 02:08:20;;;;;;;13.35;7.32;;;;;;;1.46;88.80;100206.34;5006124;28;20025;-55
2021/12/04 02:10:47;;;;;;;14.07;7.60;;;;;;;1.48;88.78;100208.78;5016647;28;20046;-56
2021/12/04 02:13:15;;;;;;;12.98;7.30;;;;;;;1.52;88.50;100199.44;5006700;28;20421;-54
2021/12/04 02:15:41;;;;;;;12.35;8.15;;;;;;;1.51;88.81;100213.66;5004886;28;20029;-55
2021/12/04 02:18:07;;;;;;;12.43;8.35;;;;;;;1.49;88.79;100208.56;5002875;28;20451;-55
2021/12/04 02:20:34;;;;;;;13.32;7.10;;;;;;;1.54;88.79;100201.88;5003638;28;20097;-52
2021/12/04 02:23:04;;;;;;;15.43;7.80;;;;;;;1.52;88.72;100210.81;5005833;28;20026;-55
2021/12/04 02:25:30;;;;;;;12.70;6.70;;;;;;;1.59;88.75;100194.13;5001462;28;20032;-55
2021/12/04 02:27:56;;;;;;;15.23;6.82;;;;;;;1.62;88.50;100201.69;5006127;28;20381;-54
2021/12/04 02:30:26;;;;;;;15.65;8.32;;;;;;;1.57;88.46;100201.44;5006219;28;20123;-54
2021/12/04 02:32:52;;;;;;;14.52;8.55;;;;;;;1.58;88.70;100203.06;5006228;28;20036;-56
2021/12/04 02:35:19;;;;;;;14.35;7.93;;;;;;;1.62;88.47;100196.41;5005680;28;20037;-55
2021/12/04 02:37:45;;;;;;;17.83;7.93;;;;;;;1.64;88.46;100191.72;5005035;28;20591;-54
2021/12/04 02:40:13;;;;;;;15.60;7.57;;;;;;;1.63;88.61;100198.03;5006924;28;20026;-55
2021/12/04 02:42:39;;;;;;;12.35;8.05;;;;;;;1.62;88.82;100194.56;5003687;28;20018;-54
2021/12/04 02:45:08;;;;;;;15.98;7.80;;;;;;;1.69;88.33;100189.28;5003399;28;20583;-55
2021/12/04 02:47:35;;;;;;;14.93;8.38;;;;;;;1.63;88.57;100188.28;5004408;28;20030;-54
2021/12/04 02:50:05;;;;;;;13.45;7.38;;;;;;;1.63;89.01;100192.75;5007101;28;20041;-56
2021/12/04 02:52:31;;;;;;;13.70;7.25;;;;;;;1.69;88.69;100189.28;4996902;28;20027;-52
2021/12/04 02:54:57;;;;;;;16.35;8.65;;;;;;;1.73;88.31;100187.84;5005228;28;20108;-52
2021/12/04 02:57:22;;;;;;;14.10;8.00;;;;;;;1.72;88.54;100184.41;5005038;28;20571;-52
2021/12/04 02:59:49;;;;;;;13.90;7.60;;;;;;;1.74;88.21;100182.34;5009905;28;20400;-52
2021/12/04 03:02:21;;;;;;;14.27;8.45;;;;;;;1.74;88.34;100179.72;5005024;28;20110;-53
2021/12/04 03:04:52;;;;;;;14.95;8.25;;;;;;;1.75;88.26;100183.97;5003528;28;20030;-56
2021/12/04 03:07:18;;;;;;;13.65;7.88;;;;;;;1.74;88.48;100184.19;5007336;28;20549;-52
2021/12/04 03:09:45;;;;;;;15.23;7.20;;;;;;;1.76;88.52;100175.03;5005354;28;20030;-53
2021/12/04 03:12:12;;;;;;;17.23;7.95;;;;;;;1.81;88.23;100182.38;5008633;28;20034;-53
2021/12/04 03:14:38;;;;;;;16.77;8.40;;;;;;;1.82;88.20;100178.72;5006043;28;20397;-52
2021/12/04 03:17:05;;;;;;;12.38;7.57;;;;;;;1.84;88.08;100178.50;5009209;28;20032;-53
2021/12/04 03:19:31;;;;;;;15.15;8.65;;;;;;;1.80;88.18;100178.09;5005201;28;20124;-52
2021/12/04 03:21:56;;;;;;;14.05;8.00;;;;;;;1.79;88.17;100161.41;5005499;28;20551;-52
2021/12/04 03:24:23;;;;;;;15.00;7.90;;;;;;;1.74;88.46;100161.22;5007280;28;20136;-53
2021/12/04 03:26:50;;;;;;;21.67;8.30;;;;;;;1.75;88.32;100162.84;5009959;28;20122;-52
2021/12/04 03:29:19;;;;;;;14.45;7.97;;;;;;;1.75;88.60;100156.75;5006914;28;20029;-52
2021/12/04 03:42:25;;;;;;;14.48;8.65;;;;;;;1.81;88.56;100166.53;5008081;28;20396;-52
2021/12/04 03:44:50;;;;;;;17.75;8.40;;;;;;;1.83;88.58;100168.97;5009032;28;20022;-52
2021/12/04 03:47:16;;;;;;;14.00;8.15;;;;;;;1.84;88.44;100167.94;5008498;28;20056;-52
2021/12/04 03:49:42;;;;;;;16.52;8.73;;;;;;;1.89;88.21;100168.13;5007076;28;20104;-52
2021/12/04 03:52:09;;;;;;;14.60;8.65;;;;;;;1.88;88.26;100167.31;5007135;28;20572;-52
2021/12/04 03:54:35;;;;;;;16.13;8.43;;;;;;;1.90;88.23;100167.91;5008446;28;20129;-52
2021/12/04 03:57:04;;;;;;;16.27;9.00;;;;;;;1.92;87.95;100160.59;5008657;28;20084;-52
2021/12/04 03:59:35;;;;;;;20.40;9.07;;;;;;;1.88;88.31;100167.31;5005797;28;20057;-54
2021/12/04 04:02:00;;;;;;;14.05;8.38;;;;;;;1.92;88.19;100168.53;5007290;28;20068;-53
2021/12/04 04:04:26;;;;;;;17.13;8.43;;;;;;;1.94;88.20;100163.03;5010116;28;20045;-54
2021/12/04 04:06:52;;;;;;;15.80;8.75;;;;;;;1.94;88.49;100152.47;5004741;28;20033;-52
2021/12/04 04:09:18;;;;;;;12.45;8.13;;;;;;;1.96;88.23;100153.88;5007262;28;20028;-52
2021/12/04 04:11:44;;;;;;;18.65;9.30;;;;;;;1.95;88.37;100154.91;5002119;28;20038;-52
2021/12/04 04:14:09;;;;;;;17.98;8.90;;;;;;;1.97;88.16;100152.84;5005420;28;20112;-54
2021/12/04 04:16:36;;;;;;;15.50;8.65;;;;;;;1.98;88.23;100149.22;5005836;28;20057;-52
2021/12/04 04:19:03;;;;;;;15.75;8.15;;;;;;;1.98;88.15;100146.59;5004813;28;20084;-52
2021/12/04 04:21:29;;;;;;;15.65;9.30;;;;;;;1.99;87.95;100147.41;5004088;28;20110;-53
2021/12/04 04:23:54;;;;;;;14.65;8.95;;;;;;;1.94;88.53;100150.63;5005606;28;20022;-52
2021/12/04 04:26:20;;;;;;;15.13;8.25;;;;;;;1.99;88.09;100150.03;5006672;28;20026;-54
2021/12/04 04:28:45;;;;;;;15.80;9.48;;;;;;;1.98;88.15;100154.50;5004099;28;21529;-54
2021/12/04 04:31:11;;;;;;;16.20;9.45;;;;;;;1.98;88.07;100154.50;5007629;28;20036;-53
2021/12/04 04:33:40;;;;;;;15.93;9.00;;;;;;;1.97;88.15;100147.56;5004278;28;20025;-52
2021/12/04 04:36:36;;;;;;;15.57;8.35;;;;;;;2.00;87.90;100144.53;5008035;28;20041;-54
2021/12/04 05:11:16;;;;;;;16.15;9.45;;;;;;;1.90;88.92;100143.34;5005232;28;20225;-53
2021/12/04 05:13:42;;;;;;;17.45;9.73;;;;;;;1.87;89.43;100147.19;5003718;28;20468;-54
2021/12/04 05:16:15;;;;;;;14.45;9.40;;;;;;;1.90;88.99;100145.97;5006145;28;20045;-53
2021/12/04 05:18:59;;;;;;;14.88;9.13;;;;;;;1.88;89.34;100151.47;5001908;28;20472;-52
2021/12/04 05:21:25;;;;;;;15.82;9.02;;;;;;;1.92;89.25;100139.47;5007437;28;20033;-52
2021/12/04 05:23:54;;;;;;;16.42;10.00;;;;;;;1.96;89.24;100142.50;5000336;28;20045;-52
2021/12/04 05:26:26;;;;;;;17.65;10.07;;;;;;;1.98;88.95;100140.50;5006853;28;20048;-52
2021/12/04 05:28:53;;;;;;;15.77;8.85;;;;;;;2.00;88.83;100133.97;5006731;28;20061;-53
2021/12/04 05:31:20;;;;;;;16.27;9.25;;;;;;;2.01;88.89;100129.50;5020816;28;20022;-52
2021/12/04 05:33:46;;;;;;;15.85;9.38;;;;;;;1.97;88.95;100133.56;5006288;28;20030;-55
2021/12/04 05:36:12;;;;;;;17.10;9.23;;;;;;;1.98;89.07;100137.84;5008677;28;20064;-54
2021/12/04 05:38:38;;;;;;;17.13;10.63;;;;;;;1.97;89.15;100142.28;5003379;28;20057;-55
2021/12/04 05:41:05;;;;;;;16.60;10.00;;;;;;;1.97;88.96;100144.13;5003380;28;20511;-56
2021/12/04 05:43:31;;;;;;;15.60;9.10;;;;;;;1.91;89.54;100137.84;5003672;28;20551;-54
2021/12/04 05:46:09;;;;;;;17.08;9.65;;;;;;;1.91;89.55;100129.91;5004373;28;20032;-55
2021/12/04 05:56:15;;;;;;;19.80;10.43;;;;;;;1.92;89.55;100120.97;5006963;28;20034;-51
2021/12/04 05:58:40;;;;;;;16.02;10.30;;;;;;;1.93;89.97;100117.31;5007730;28;20026;-52
2021/12/04 06:01:07;;;;;;;17.27;10.13;;;;;;;1.95;89.76;100125.84;5006059;28;20060;-55
2021/12/04 06:03:33;;;;;;;17.98;9.93;;;;;;;1.95;89.64;100120.56;5003537;28;20048;-53
2021/12/04 06:05:59;;;;;;;15.75;9.43;;;;;;;1.96;89.81;100124.00;5004614;28;20061;-52
2021/12/04 06:08:24;;;;;;;17.50;10.05;;;;;;;2.00;89.51;100135.81;5007560;28;20033;-54
2021/12/04 06:10:50;;;;;;;18.67;10.27;;;;;;;2.02;89.30;100131.94;5007210;28;20022;-54
2021/12/04 06:13:16;;;;;;;18.67;11.25;;;;;;;2.06;89.33;100134.97;5004705;28;20026;-55
2021/12/04 06:15:42;;;;;;;19.17;10.82;;;;;;;2.07;89.19;100132.13;5006512;28;20377;-53
2021/12/04 06:18:08;;;;;;;17.75;9.80;;;;;;;2.05;89.07;100134.16;5003310;28;20461;-55
2021/12/04 06:23:22;;;;;;;17.85;9.35;;;;;;;2.08;89.08;100125.81;5005137;28;20045;-54
2021/12/04 06:25:48;;;;;;;18.95;11.35;;;;;;;2.08;88.94;100120.53;5002397;28;20026;-54
2021/12/04 06:28:15;;;;;;;18.65;10.23;;;;;;;2.09;89.13;100123.97;5003599;28;20488;-53
2021/12/04 06:30:42;;;;;;;16.77;9.90;;;;;;;2.10;88.73;100118.50;5004285;28;20038;-55
2021/12/04 06:33:10;;;;;;;18.02;10.88;;;;;;;2.08;88.90;100130.28;5006695;28;20030;-56
2021/12/04 06:35:39;;;;;;;17.05;10.20;;;;;;;2.07;88.91;100118.91;5005326;28;21548;-53
2021/12/04 06:38:05;;;;;;;16.13;9.38;;;;;;;2.03;89.45;100123.00;5007819;28;20070;-55
2021/12/04 06:40:31;;;;;;;16.98;9.88;;;;;;;2.06;89.38;100122.56;5008414;28;20026;-55
2021/12/04 06:42:59;;;;;;;18.35;10.60;;;;;;;2.03;89.43;100128.28;5004104;28;20544;-52
2021/12/04 06:45:26;;;;;;;17.33;10.00;;;;;;;2.02;89.57;100123.19;5009238;28;20044;-52
2021/12/04 06:48:01;;;;;;;15.82;9.55;;;;;;;2.04;89.52;100126.44;5022623;28;20030;-51
2021/12/04 06:51:05;;;;;;;20.17;10.45;;;;;;;2.05;89.38;100131.50;5006691;28;20030;-52
2021/12/04 06:55:53;;;;;;;20.23;9.30;;;;;;;2.10;89.09;100136.97;5007392;28;20531;-52
2021/12/04 06:58:19;;;;;;;18.75;9.73;;;;;;;2.09;89.32;100137.19;5007875;28;20045;-53
2021/12/04 07:00:46;;;;;;;15.23;9.18;;;;;;;2.06;89.46;100141.06;5007044;28;20026;-53
2021/12/04 07:03:11;;;;;;;19.00;9.60;;;;;;;2.05;89.43;100149.19;5005542;28;20049;-53
2021/12/04 07:05:37;;;;;;;18.20;9.57;;;;;;;2.05;89.47;100151.84;5006821;28;20064;-52
2021/12/04 07:08:05;;;;;;;17.67;9.27;;;;;;;2.06;89.48;100154.28;5007480;28;20022;-53
2021/12/04 07:10:32;;;;;;;16.48;8.93;;;;;;;2.08;89.48;100152.25;5006441;28;20022;-54
2021/12/04 07:12:58;;;;;;;15.60;9.57;;;;;;;2.08;89.35;100146.94;4999744;28;20440;-54
2021/12/04 07:15:26;;;;;;;15.00;9.15;;;;;;;2.07;89.61;100140.03;5005916;28;20406;-53
2021/12/04 07:17:52;;;;;;;15.23;9.30;;;;;;;2.10;89.16;100141.47;5005122;28;20439;-52
2021/12/04 07:20:17;;;;;;;16.35;9.55;;;;;;;2.10;89.10;100144.91;5011403;28;20029;-52
2021/12/04 07:22:43;;;;;;;18.50;9.93;;;;;;;2.10;89.20;100144.91;5009133;28;20026;-52
2021/12/04 07:25:10;;;;;;;19.77;10.38;;;;;;;2.11;89.18;100151.00;5010338;28;20506;-52
2021/12/04 07:27:35;;;;;;;19.48;9.95;;;;;;;2.10;89.41;100152.03;5007082;28;20121;-54
2021/12/04 07:30:01;;;;;;;17.23;9.82;;;;;;;2.13;89.24;100149.78;5011681;28;20028;-52
2021/12/04 07:32:27;;;;;;;17.50;9.43;;;;;;;2.11;89.08;100151.81;5008027;28;20118;-55
2021/12/04 07:34:53;;;;;;;19.83;10.50;;;;;;;2.11;89.06;100151.00;5006646;28;20479;-53
2021/12/04 07:37:19;;;;;;;17.55;10.18;;;;;;;2.11;88.97;100151.81;5008691;28;20503;-53
2021/12/04 07:39:45;;;;;;;33.03;11.07;;;;;;;2.08;89.45;100146.94;5006782;28;20044;-53
2021/12/04 07:42:10;;;;;;;16.67;10.32;;;;;;;2.09;89.52;100153.06;5008279;28;20026;-54
2021/12/04 07:44:36;;;;;;;19.38;11.05;;;;;;;2.14;89.41;100158.50;5006420;28;20153;-52
2021/12/04 07:47:01;;;;;;;17.75;10.25;;;;;;;2.13;89.20;100160.34;5010566;28;20408;-54
2021/12/04 07:49:27;;;;;;;19.73;10.98;;;;;;;2.12;89.49;100155.28;5007466;28;20030;-52
2021/12/04 07:51:53;;;;;;;20.13;10.68;;;;;;;2.15;89.16;100157.50;5008687;28;20075;-52
2021/12/04 07:54:18;;;;;;;20.20;10.43;;;;;;;2.15;89.32;100161.97;5007652;28;20034;-52
2021/12/04 07:56:44;;;;;;;19.83;10.23;;;;;;;2.15;89.44;100156.69;5008451;28;20026;-54
2021/12/04 07:59:10;;;;;;;18.45;10.52;;;;;;;2.18;89.27;100156.28;5007883;28;20044;-55
2021/12/04 08:01:36;;;;;;;20.45;10.35;;;;;;;2.20;89.44;100162.19;5010300;28;20111;-52
2021/12/04 08:04:01;;;;;;;16.27;9.95;;;;;;;2.23;89.17;100162.56;5008331;28;20049;-54
2021/12/04 08:06:27;;;;;;;17.58;10.38;;;;;;;2.26;89.08;100164.00;5006977;28;20022;-55
2021/12/04 08:08:58;;;;;;;18.80;10.25;;;;;;;2.25;89.16;100165.81;5003257;28;20034;-54
2021/12/04 08:11:25;;;;;;;18.77;10.00;;;;;;;2.24;88.80;100160.75;5005211;28;20037;-54
2021/12/04 08:13:50;;;;;;;20.13;11.27;;;;;;;2.26;89.00;100161.34;5008670;28;20030;-55
2021/12/04 08:16:16;;;;;;;17.70;10.20;;;;;;;2.26;88.79;100171.91;5006809;28;20026;-52
2021/12/04 08:18:41;;;;;;;17.50;10.15;;;;;;;2.26;88.81;100175.38;5010545;28;20026;-52
2021/12/04 08:21:08;;;;;;;17.75;9.60;;;;;;;2.27;88.98;100171.72;5004460;28;20945;-54
2021/12/04 08:23:33;;;;;;;20.48;10.55;;;;;;;2.31;88.83;100175.56;5005315;28;20025;-55
2021/12/04 08:25:59;;;;;;;18.70;10.75;;;;;;;2.32;88.50;100176.38;5004288;28;20033;-54
2021/12/04 08:28:24;;;;;;;20.17;11.18;;;;;;;2.30;88.53;100170.47;5006333;28;20049;-55
2021/12/04 08:30:50;;;;;;;20.08;11.27;;;;;;;2.32;88.61;100171.88;5007255;28;20084;-54
2021/12/04 08:33:16;;;;;;;17.58;10.07;;;;;;;2.31;88.43;100172.09;5009673;28;20189;-53
2021/12/04 08:35:42;;;;;;;19.83;11.02;;;;;;;2.30;88.74;100173.94;5007218;28;20472;-54
2021/12/04 08:38:09;;;;;;;18.90;10.52;;;;;;;2.32;88.74;100173.72;5007373;28;20038;-55
2021/12/04 08:40:37;;;;;;;18.73;10.02;;;;;;;2.34;88.70;100179.63;5007102;28;20021;-54
2021/12/04 08:43:04;;;;;;;18.08;9.82;;;;;;;2.34;88.77;100182.28;5007873;28;20530;-55
2021/12/04 08:45:31;;;;;;;19.90;9.98;;;;;;;2.36;88.77;100172.31;5004837;28;20407;-55
2021/12/04 08:47:57;;;;;;;18.40;10.60;;;;;;;2.37;88.82;100181.84;5005357;28;20266;-54
2021/12/04 08:50:29;;;;;;;19.20;10.73;;;;;;;2.38;88.61;100188.78;5006985;28;20033;-55
2021/12/04 08:52:56;;;;;;;16.92;10.05;;;;;;;2.39;88.54;100187.75;5005684;28;20065;-53
2021/12/04 08:55:23;;;;;;;16.02;10.40;;;;;;;2.41;88.78;100186.50;4999164;28;20360;-52
2021/12/04 08:57:49;;;;;;;16.85;9.85;;;;;;;2.39;88.73;100191.19;4998583;28;20029;-55
2021/12/04 09:00:20;;;;;;;18.55;10.40;;;;;;;2.37;88.64;100197.72;5010228;28;20081;-52
2021/12/04 09:02:46;;;;;;;18.80;10.38;;;;;;;2.38;88.64;100200.16;5002180;28;20029;-52
2021/12/04 09:05:14;;;;;;;19.23;10.23;;;;;;;2.37;88.55;100205.66;5000665;28;20025;-53
2021/12/04 09:07:39;;;;;;;18.02;10.20;;;;;;;2.35;88.57;100202.41;5002760;28;20501;-52
2021/12/04 09:10:06;;;;;;;17.27;10.70;;;;;;;2.37;88.66;100203.00;4999102;28;20072;-52
2021/12/04 09:12:33;;;;;;;23.23;11.38;;;;;;;2.34;88.89;100198.13;5002235;28;20041;-54
2021/12/04 09:15:01;;;;;;;15.93;8.95;;;;;;;2.36;88.60;100198.75;5002441;28;20075;-52
2021/12/04 09:17:26;;;;;;;19.67;10.35;;;;;;;2.35;88.65;100203.22;5001875;28;20033;-54
2021/12/04 09:19:52;;;;;;;16.35;9.80;;;;;;;2.35;88.75;100207.69;5006506;28;20030;-53
2021/12/04 09:22:26;;;;;;;18.52;10.35;;;;;;;2.36;89.06;100209.31;5005236;28;20034;-53
2021/12/04 09:24:56;;;;;;;20.52;10.93;;;;;;;2.32;89.13;100216.00;5005786;28;20064;-53
2021/12/04 09:27:44;;;;;;;19.05;10.25;;;;;;;2.34;89.10;100200.78;5003592;28;20496;-52
2021/12/04 09:33:07;;;;;;;18.15;10.02;;;;;;;2.35;88.78;100205.88;5006706;28;20033;-55
2021/12/04 10:02:33;;;;;;;19.80;11.07;;;;;;;2.49;88.94;100196.03;5002761;28;20109;-53
2021/12/04 10:05:14;;;;;;;18.20;10.68;;;;;;;2.51;88.71;100204.56;5003982;28;20279;-52
2021/12/04 10:33:18;;;;;;;19.20;11.07;;;;;;;2.59;89.11;100169.97;5001334;28;20080;-55
2021/12/04 10:35:45;;;;;;;16.92;10.05;;;;;;;2.61;89.19;100167.94;5000732;28;20033;-54
2021/12/04 10:38:21;;;;;;;21.73;10.98;;;;;;;2.61;89.32;100165.28;5021117;22;20073;-86
2021/12/04 10:40:49;;;;;;;17.90;10.48;;;;;;;2.63;89.41;100165.88;5025148;28;20553;-86
2021/12/04 10:43:25;;;;;;;17.90;11.15;;;;;;;2.60;89.42;100163.66;5019494;28;20039;-87
2021/12/04 10:45:55;;;;;;;15.30;9.52;;;;;;;2.60;89.60;100163.66;5010086;28;20030;-86
2021/12/04 10:48:26;;;;;;;19.10;10.00;;;;;;;2.63;89.61;100165.88;5011458;28;20032;-87
2021/12/04 10:51:19;;;;;;;15.38;9.32;;;;;;;2.62;89.87;100164.25;5032217;28;20040;-86
2021/12/04 10:53:48;;;;;;;18.65;9.75;;;;;;;2.66;89.93;100154.88;5009904;28;20105;-87
2021/12/04 11:04:16;;;;;;;13.65;8.45;;;;;;;2.71;89.65;100152.44;5017711;28;20125;-52
2021/12/04 11:35:18;;;;;;;16.20;9.07;;;;;;;2.91;89.32;100119.75;5001120;28;20049;-59
2021/12/04 11:40:30;;;;;;;15.25;8.57;;;;;;;2.97;88.94;100124.19;5000634;28;20030;-58
2021/12/04 11:43:03;;;;;;;14.90;8.25;;;;;;;3.02;89.03;100116.41;4997730;28;20026;-59
2021/12/04 11:45:45;;;;;;;15.88;8.50;;;;;;;3.04;88.88;100114.38;5002891;28;20030;-58
2021/12/04 11:48:11;;;;;;;14.10;8.88;;;;;;;3.08;88.57;100115.56;4994131;28;20026;-59
2021/12/04 11:50:40;;;;;;;15.00;7.63;;;;;;;3.09;88.42;100111.91;4999833;28;20037;-59
2021/12/04 11:53:17;;;;;;;15.75;9.30;;;;;;;3.11;88.27;100115.16;5000019;28;20190;-59
2021/12/04 11:55:45;;;;;;;18.77;8.90;;;;;;;3.14;88.27;100103.31;4995523;28;20096;-58
2021/12/04 11:58:23;;;;;;;19.15;9.02;;;;;;;3.13;88.14;100102.50;4998059;28;20054;-58
2021/12/04 12:00:50;;;;;;;16.27;9.70;;;;;;;3.14;87.90;100103.31;4997970;28;20045;-59
2021/12/04 12:03:22;;;;;;;18.23;10.07;;;;;;;3.11;88.14;100101.91;4996244;28;20538;-61
2021/12/04 12:05:57;;;;;;;18.40;9.02;;;;;;;3.10;88.15;100097.66;4996237;28;20034;-59
2021/12/04 12:08:37;;;;;;;;;;;;;;;3.06;88.46;100095.66;4996013;28;20155;-59
2021/12/04 12:11:09;;;;;;;17.63;9.93;;;;;;;3.11;88.45;100090.50;4995100;28;19922;-59
2021/12/04 12:13:43;;;;;;;19.30;9.98;;;;;;;3.13;87.88;100105.16;4991637;28;20477;-59
2021/12/04 12:16:18;;;;;;;15.93;10.35;;;;;;;3.13;88.04;100091.91;4995142;28;20030;-59
2021/12/04 12:19:25;;;;;;;16.67;10.15;;;;;;;3.14;87.85;100096.19;4999745;28;20128;-59
2021/12/04 12:36:02;;;;;;;18.92;10.60;;;;;;;3.16;87.51;100102.06;4996459;28;20399;-58
2021/12/04 12:38:34;;;;;;;16.83;10.38;;;;;;;3.13;87.40;100097.22;4994968;28;20509;-60
2021/12/04 12:41:26;;;;;;;18.70;10.02;;;;;;;3.17;86.96;100094.94;4992072;28;20061;-60
2021/12/04 12:44:08;;;;;;;15.27;9.43;;;;;;;3.12;87.04;100092.94;4985862;28;20073;-60
2021/12/04 12:46:36;;;;;;;15.48;9.02;;;;;;;3.11;87.04;100088.69;4993358;28;20352;-59
2021/12/04 12:49:03;;;;;;;19.90;8.93;;;;;;;3.10;87.21;100080.97;4996708;28;20109;-59
2021/12/04 12:51:33;;;;;;;19.30;9.82;;;;;;;3.08;87.13;100072.41;4996499;28;20057;-59
2021/12/04 12:54:02;;;;;;;15.85;9.50;;;;;;;3.08;87.27;100083.81;4999170;28;20018;-59
2021/12/04 12:56:31;;;;;;;19.15;10.07;;;;;;;3.11;87.36;100083.38;4997450;28;20030;-60
2021/12/04 12:59:04;;;;;;;14.88;9.63;;;;;;;3.09;86.94;100080.16;4995811;28;20055;-60
2021/12/04 13:13:28;;;;;;;17.15;9.82;;;;;;;3.08;86.99;100085.66;4990733;28;20382;-60
2021/12/04 13:16:00;;;;;;;19.48;11.13;;;;;;;3.07;86.90;100092.78;4994416;28;20498;-59
2021/12/04 13:18:26;;;;;;;17.35;10.18;;;;;;;3.08;86.71;100088.31;4995194;28;20026;-60
2021/12/04 13:20:58;;;;;;;19.27;10.30;;;;;;;3.09;87.04;100088.09;5010579;28;20026;-60
2021/12/04 13:23:25;;;;;;;18.13;9.75;;;;;;;3.07;86.93;100082.19;4996455;28;20036;-59
2021/12/04 13:26:02;;;;;;;16.17;9.57;;;;;;;3.03;86.62;100081.78;4995665;28;20081;-59
2021/12/04 13:28:31;;;;;;;17.42;10.38;;;;;;;3.02;86.98;100084.66;4990577;28;20408;-59
2021/12/04 13:31:00;;;;;;;23.13;10.57;;;;;;;3.08;86.66;100083.00;4997202;28;20036;-59
2021/12/04 13:33:27;;;;;;;18.58;11.07;;;;;;;3.06;86.54;100085.88;4991907;28;20026;-60
2021/12/04 13:35:53;;;;;;;18.55;10.57;;;;;;;3.05;86.70;100089.50;4992109;28;20124;-60
2021/12/04 13:38:22;;;;;;;20.02;10.13;;;;;;;3.06;86.57;100085.06;4991462;28;20567;-60
2021/12/04 13:40:49;;;;;;;17.83;10.10;;;;;;;3.07;86.62;100087.50;4996332;28;20100;-59
2021/12/04 13:43:16;;;;;;;20.73;9.95;;;;;;;3.03;86.68;100091.56;4993841;28;20112;-60
2021/12/04 13:45:43;;;;;;;20.35;11.23;;;;;;;3.01;86.68;100088.34;4993304;28;20023;-59
2021/12/04 13:48:09;;;;;;;21.30;11.85;;;;;;;2.98;86.86;100081.63;4995120;28;20029;-59
2021/12/04 13:53:07;;;;;;;18.63;10.20;;;;;;;3.00;86.34;100084.06;4994617;28;20034;-58
2021/12/04 13:55:36;;;;;;;19.95;10.40;;;;;;;3.00;86.41;100076.13;4990537;28;20035;-60
2021/12/04 13:58:03;;;;;;;20.00;11.00;;;;;;;3.04;86.36;100074.66;4992559;28;20483;-60
2021/12/04 14:00:29;;;;;;;19.23;10.38;;;;;;;3.08;86.43;100073.22;4993382;28;20483;-60
2021/12/04 14:02:54;;;;;;;17.23;9.52;;;;;;;3.04;86.43;100074.66;4996377;28;20217;-59
2021/12/04 14:05:23;;;;;;;20.95;11.20;;;;;;;3.03;86.29;100073.84;4991961;28;20301;-60
2021/12/04 14:07:54;;;;;;;24.38;11.10;;;;;;;3.02;86.50;100074.88;4991153;28;20088;-60
2021/12/04 14:10:25;;;;;;;22.73;11.63;;;;;;;3.03;86.12;100086.28;4994104;28;20030;-59
2021/12/04 14:12:51;;;;;;;22.40;11.80;;;;;;;3.05;86.28;100081.56;4991043;28;20030;-59
2021/12/04 14:15:19;;;;;;;23.40;10.40;;;;;;;3.02;86.16;100089.94;4993756;28;20091;-60
2021/12/04 14:17:47;;;;;;;20.55;11.80;;;;;;;3.02;86.38;100101.34;4995961;28;20033;-60
2021/12/04 14:20:19;;;;;;;26.65;12.80;;;;;;;3.02;86.50;100092.59;4998223;28;20121;-60
2021/12/04 14:22:49;;;;;;;25.33;12.75;;;;;;;2.97;86.53;100093.25;4997146;28;20027;-59
2021/12/04 14:25:16;;;;;;;23.90;11.75;;;;;;;2.99;86.27;100095.69;4995868;28;20019;-60
2021/12/04 14:27:44;;;;;;;25.67;12.20;;;;;;;2.98;86.24;100094.06;4991757;28;20026;-60
2021/12/04 14:30:15;;;;;;;33.97;18.25;;;;;;;2.93;86.71;100104.47;4999791;28;20060;-61
2021/12/04 14:32:42;;;;;;;323.55;150.82;;;;;;;3.11;88.96;100096.63;4995779;28;20030;-58
2021/12/04 14:35:15;;;;;;;164.65;74.97;;;;;;;3.98;90.85;100094.00;4996458;28;20392;-59
2021/12/04 14:37:45;;;;;;;63.55;32.15;;;;;;;4.96;89.74;100097.22;4995032;28;20033;-59
2021/12/04 14:40:34;;;;;;;37.50;19.48;;;;;;;6.01;88.41;100097.31;4994259;28;20066;-57